Terminal Aerodrome Forecast
Issued by NWS Bismarck, ND

Home | Current Version | Previous Version | Text Only | Print | Product List | Glossary Off
Versions: 1 2 3 4 5 6 7 8 9 10 11 12 13 14 15 16 17 18 19 20 21 22

000
FTUS43 KBIS 241100
TAFBIS
TAF
KBIS 241135Z 2412/2512 12010KT P6SM FEW100
     FM241400 12011KT P6SM VCTS BKN060CB
     FM241600 12013KT P6SM BKN250
     FM250200 10007KT P6SM VCTS SCT080CB BKN120=

USA.gov is the U.S. government's official web portal to all federal, state and local government web resources and services.